Time;durP1;ratioP1;P1;durP2;ratioP2;P2;SDS_P1;SDS_P2;PMS_P1;PMS_P2;Temp;Humidity;BMP_temperature;BMP_pressure;BME280_temperature;BME280_humidity;BME280_pressure;Samples;Min_cycle;Max_cycle;Signal;HPM_P1;HPM_P2
2022/03/12 00:01:10;;;;;;;10.48;6.47;;;7.10;76.80;;;;;;4990699;28;20198;-61
2022/03/12 00:03:40;;;;;;;8.38;6.68;;;7.10;69.00;;;;;;4991441;28;20204;-61
2022/03/12 00:06:09;;;;;;;7.05;6.35;;;7.10;70.90;;;;;;4991360;28;20226;-62
2022/03/12 00:08:42;;;;;;;18.27;6.70;;;6.90;70.70;;;;;;4991296;28;20274;-62
2022/03/12 00:11:16;;;;;;;9.75;6.63;;;6.70;66.30;;;;;;4989784;28;20202;-62
2022/03/12 00:13:45;;;;;;;6.38;5.78;;;6.70;67.50;;;;;;4991254;28;20228;-62
2022/03/12 00:16:14;;;;;;;6.95;6.35;;;6.70;68.90;;;;;;4991259;28;20225;-62
2022/03/12 00:18:45;;;;;;;14.18;5.95;;;6.60;66.70;;;;;;4991352;28;20602;-62
2022/03/12 00:21:13;;;;;;;7.63;6.82;;;6.70;73.50;;;;;;4989263;28;20920;-62
2022/03/12 00:23:46;;;;;;;7.55;6.13;;;6.60;67.30;;;;;;4984884;28;20237;-62
2022/03/12 00:26:16;;;;;;;6.85;6.05;;;6.70;68.10;;;;;;4991351;28;20296;-62
2022/03/12 00:28:44;;;;;;;8.52;6.00;;;6.70;68.60;;;;;;4991608;28;20237;-62
2022/03/12 00:31:13;;;;;;;9.30;6.70;;;6.70;73.80;;;;;;4990779;28;20285;-62
2022/03/12 00:33:41;;;;;;;6.50;5.78;;;6.70;67.70;;;;;;4991082;28;20221;-62
2022/03/12 00:36:11;;;;;;;7.03;6.32;;;6.60;74.40;;;;;;4991206;28;20237;-62
2022/03/12 00:38:39;;;;;;;7.50;6.20;;;6.70;70.10;;;;;;4991092;28;20214;-62
2022/03/12 00:41:08;;;;;;;9.15;6.90;;;6.60;77.60;;;;;;4990781;28;20233;-61
2022/03/12 00:43:36;;;;;;;8.55;6.45;;;6.70;68.70;;;;;;4991160;28;20211;-61
2022/03/12 00:46:05;;;;;;;8.30;5.95;;;6.70;69.40;;;;;;4990304;28;20599;-62
2022/03/12 00:48:33;;;;;;;9.98;6.57;;;6.50;67.60;;;;;;4991314;28;20210;-61
2022/03/12 00:51:06;;;;;;;7.13;6.50;;;6.50;68.40;;;;;;4989721;28;20202;-61
2022/03/12 00:53:36;;;;;;;7.07;6.38;;;6.50;68.60;;;;;;4994477;28;20222;-61
2022/03/12 00:56:05;;;;;;;6.30;5.53;;;6.60;73.10;;;;;;4994268;28;20205;-62
2022/03/12 00:58:34;;;;;;;7.55;6.40;;;6.70;72.20;;;;;;4994520;28;20589;-61
2022/03/12 01:01:02;;;;;;;7.55;6.18;;;6.70;70.00;;;;;;4994250;28;20233;-61
2022/03/12 01:03:30;;;;;;;6.45;5.85;;;6.60;68.70;;;;;;4994357;28;20218;-62
2022/03/12 01:06:01;;;;;;;6.45;5.85;;;6.60;69.10;;;;;;4993913;28;20289;-62
2022/03/12 01:08:30;;;;;;;5.90;5.30;;;6.60;68.00;;;;;;4993862;28;20289;-61
2022/03/12 01:11:03;;;;;;;7.70;6.05;;;6.50;67.30;;;;;;4991160;28;20312;-61
2022/03/12 01:13:31;;;;;;;8.63;6.15;;;6.50;69.20;;;;;;4993339;28;20284;-62
2022/03/12 01:16:00;;;;;;;5.70;5.13;;;6.40;67.60;;;;;;4993214;28;20737;-62
2022/03/12 01:18:29;;;;;;;5.45;4.95;;;6.30;70.10;;;;;;4994048;28;20202;-61
2022/03/12 01:21:07;;;;;;;6.38;5.78;;;6.30;72.40;;;;;;4994187;28;20240;-62
2022/03/12 01:23:35;;;;;;;7.15;5.75;;;6.40;71.00;;;;;;4993434;28;20194;-62
2022/03/12 01:26:05;;;;;;;9.85;6.50;;;6.30;67.00;;;;;;4993846;28;20202;-62
2022/03/12 01:28:33;;;;;;;6.68;5.80;;;6.20;67.20;;;;;;4994016;28;20253;-61
2022/03/12 01:31:01;;;;;;;6.45;5.85;;;6.20;71.80;;;;;;4993608;28;20234;-61
2022/03/12 01:33:30;;;;;;;7.05;6.00;;;6.10;67.80;;;;;;4991757;28;20304;-61
2022/03/12 01:35:58;;;;;;;9.70;6.00;;;6.00;69.50;;;;;;4993736;28;20734;-62
2022/03/12 01:38:31;;;;;;;6.30;5.70;;;6.00;69.20;;;;;;4993756;28;20686;-62
2022/03/12 01:41:02;;;;;;;7.10;6.40;;;6.00;67.90;;;;;;4993247;28;20289;-62
2022/03/12 01:43:32;;;;;;;11.00;6.00;;;5.90;68.00;;;;;;4993452;28;20810;-62
2022/03/12 01:46:01;;;;;;;6.53;5.95;;;6.00;72.10;;;;;;4993035;28;20699;-62
2022/03/12 01:48:31;;;;;;;7.60;5.93;;;5.90;67.70;;;;;;4987590;28;20209;-62
2022/03/12 01:50:59;;;;;;;6.50;5.90;;;6.10;76.10;;;;;;4989693;28;20233;-62
2022/03/12 01:53:27;;;;;;;6.18;5.70;;;6.30;71.70;;;;;;4993157;28;20305;-62
2022/03/12 01:55:56;;;;;;;6.43;5.78;;;6.40;70.60;;;;;;4993613;28;20324;-62
2022/03/12 01:58:35;;;;;;;7.85;5.75;;;6.30;69.50;;;;;;4993213;28;20596;-61
2022/03/12 02:01:04;;;;;;;8.00;6.10;;;6.20;68.30;;;;;;4992515;28;20284;-62
2022/03/12 02:03:32;;;;;;;8.10;6.22;;;6.10;68.60;;;;;;4992782;28;20218;-62
2022/03/12 02:06:01;;;;;;;7.93;5.95;;;6.10;68.60;;;;;;4993132;28;20285;-61
2022/03/12 02:08:29;;;;;;;7.35;6.13;;;6.00;68.30;;;;;;4991712;28;20202;-61
2022/03/12 02:10:59;;;;;;;6.65;4.95;;;5.90;69.30;;;;;;4992907;28;20233;-62
2022/03/12 02:13:29;;;;;;;6.75;6.15;;;5.90;71.40;;;;;;4992461;28;20226;-61
2022/03/12 02:16:08;;;;;;;9.35;5.43;;;5.80;70.20;;;;;;4993109;28;20225;-62
2022/03/12 02:18:37;;;;;;;5.90;5.40;;;5.80;68.80;;;;;;4992903;28;20198;-61
2022/03/12 02:21:06;;;;;;;5.07;4.68;;;5.80;68.80;;;;;;4992902;28;20288;-62
2022/03/12 02:23:47;;;;;;;6.88;6.22;;;5.90;73.40;;;;;;4992214;28;20313;-62
2022/03/12 02:26:15;;;;;;;9.13;6.03;;;5.90;70.30;;;;;;4987013;28;20390;-62
2022/03/12 02:28:43;;;;;;;7.38;6.65;;;5.90;70.40;;;;;;4992300;28;20225;-62
2022/03/12 02:31:13;;;;;;;6.05;5.45;;;5.80;70.50;;;;;;4992129;28;20236;-62
2022/03/12 02:33:43;;;;;;;6.78;6.18;;;5.80;70.20;;;;;;4953813;29;20207;-62
2022/03/12 02:36:12;;;;;;;6.07;5.55;;;5.70;69.00;;;;;;4954036;28;20309;-62
2022/03/12 02:38:42;;;;;;;6.53;5.90;;;5.60;69.40;;;;;;4954138;28;20239;-62
2022/03/12 02:41:11;;;;;;;6.93;6.22;;;5.60;69.50;;;;;;4953501;28;20258;-61
2022/03/12 02:43:44;;;;;;;8.05;5.60;;;5.60;69.50;;;;;;4953547;28;20282;-61
2022/03/12 02:46:14;;;;;;;6.43;5.93;;;5.70;73.50;;;;;;4954157;28;20207;-62
2022/03/12 02:48:48;;;;;;;6.82;6.00;;;5.70;69.70;;;;;;4953106;28;20207;-62
2022/03/12 02:51:16;;;;;;;7.53;6.28;;;5.70;70.00;;;;;;4953535;28;20246;-62
2022/03/12 02:53:44;;;;;;;5.97;5.47;;;5.60;70.30;;;;;;4953360;28;20238;-62
2022/03/12 02:56:14;;;;;;;8.18;6.85;;;5.60;69.00;;;;;;4953441;28;20258;-63
2022/03/12 02:58:42;;;;;;;9.55;5.75;;;5.60;70.50;;;;;;4953404;28;20206;-62
2022/03/12 03:01:14;;;;;;;7.32;5.95;;;5.50;69.40;;;;;;4953478;28;20254;-62
2022/03/12 03:03:43;;;;;;;6.68;6.07;;;5.50;74.50;;;;;;4953087;29;20218;-62
2022/03/12 03:06:13;;;;;;;7.40;6.30;;;5.50;70.00;;;;;;4953481;28;20259;-61
2022/03/12 03:08:42;;;;;;;6.90;6.30;;;5.60;70.10;;;;;;4951993;28;21405;-61
2022/03/12 03:11:13;;;;;;;8.15;5.75;;;5.60;69.40;;;;;;4952854;28;20215;-61
2022/03/12 03:13:44;;;;;;;6.85;6.15;;;5.60;69.60;;;;;;4952748;28;20293;-62
2022/03/12 03:16:21;;;;;;;6.63;5.78;;;5.60;69.80;;;;;;4952667;28;20703;-61
2022/03/12 03:18:52;;;;;;;6.78;5.65;;;5.60;72.00;;;;;;4952153;29;20214;-62
2022/03/12 03:21:21;;;;;;;6.97;5.65;;;5.50;69.60;;;;;;4952940;28;20203;-61
2022/03/12 03:23:49;;;;;;;6.35;5.80;;;5.50;69.80;;;;;;4953174;28;20690;-61
2022/03/12 03:26:22;;;;;;;7.28;6.55;;;5.50;70.30;;;;;;4953093;28;20234;-62
2022/03/12 03:28:51;;;;;;;5.93;5.40;;;5.40;69.80;;;;;;4953275;28;20231;-62
2022/03/12 03:31:19;;;;;;;6.53;5.93;;;5.40;70.70;;;;;;4953199;28;20305;-61
2022/03/12 03:33:47;;;;;;;6.40;5.75;;;5.30;68.50;;;;;;4991964;28;20224;-62
2022/03/12 03:36:15;;;;;;;6.45;5.78;;;5.30;70.00;;;;;;4991383;28;20320;-61
2022/03/12 03:38:42;;;;;;;6.32;5.82;;;5.30;70.70;;;;;;4992000;28;20234;-61
2022/03/12 03:41:10;;;;;;;11.32;6.65;;;5.20;69.40;;;;;;4990832;28;20230;-62
2022/03/12 03:43:38;;;;;;;7.85;6.45;;;5.20;70.40;;;;;;4991498;28;20248;-62
2022/03/12 03:46:07;;;;;;;10.65;6.80;;;5.20;71.40;;;;;;4991638;28;20202;-62
2022/03/12 03:48:39;;;;;;;9.18;6.18;;;5.20;70.00;;;;;;4991623;28;20568;-62
2022/03/12 03:51:07;;;;;;;8.45;6.28;;;5.20;70.70;;;;;;4991175;28;20624;-62
2022/03/12 03:53:35;;;;;;;6.32;5.80;;;5.20;71.20;;;;;;4991292;28;20620;-62
2022/03/12 03:56:04;;;;;;;5.57;5.07;;;5.20;72.00;;;;;;4991864;28;20276;-63
2022/03/12 03:58:34;;;;;;;6.32;5.70;;;5.10;75.40;;;;;;4991497;28;20206;-62
2022/03/12 04:01:04;;;;;;;8.20;5.90;;;5.20;69.90;;;;;;4990871;28;20198;-61
2022/03/12 04:03:34;;;;;;;7.05;6.35;;;5.10;71.90;;;;;;4991592;28;20264;-62
2022/03/12 04:06:04;;;;;;;6.45;5.82;;;5.10;70.20;;;;;;4991454;28;20228;-62
2022/03/12 04:08:33;;;;;;;6.22;5.22;;;5.00;71.40;;;;;;4991418;28;20229;-62
2022/03/12 04:11:04;;;;;;;6.28;5.68;;;5.00;73.50;;;;;;4990452;28;20285;-62
2022/03/12 04:13:34;;;;;;;5.75;5.32;;;5.00;70.90;;;;;;4991317;28;20254;-62
2022/03/12 04:16:03;;;;;;;7.95;6.35;;;5.10;70.50;;;;;;4990804;28;20264;-62
2022/03/12 04:18:32;;;;;;;7.10;6.40;;;5.00;71.80;;;;;;4991268;28;20206;-62
2022/03/12 04:21:01;;;;;;;6.43;5.82;;;4.90;70.90;;;;;;4991022;28;20237;-61
2022/03/12 04:23:29;;;;;;;7.03;6.10;;;4.80;70.50;;;;;;4973667;28;20268;-62
2022/03/12 04:25:58;;;;;;;8.52;6.20;;;4.70;70.20;;;;;;4992907;28;20605;-62
2022/03/12 04:28:29;;;;;;;6.20;5.60;;;4.70;72.60;;;;;;4988590;28;20237;-61
2022/03/12 04:30:57;;;;;;;7.20;5.80;;;4.70;70.40;;;;;;4994991;28;20229;-62
2022/03/12 04:33:25;;;;;;;7.72;5.55;;;4.60;70.60;;;;;;4994093;28;20317;-62
2022/03/12 04:35:52;;;;;;;10.27;6.63;;;4.60;70.70;;;;;;4995017;28;20253;-61
2022/03/12 04:38:22;;;;;;;6.75;6.15;;;4.50;69.80;;;;;;4994547;28;20226;-62
2022/03/12 04:40:50;;;;;;;8.45;5.55;;;4.50;70.40;;;;;;4994705;28;20206;-62
2022/03/12 04:43:18;;;;;;;6.75;5.78;;;4.40;70.00;;;;;;4994080;28;20313;-62
2022/03/12 04:45:47;;;;;;;8.40;6.25;;;4.50;71.10;;;;;;4994837;28;20722;-62
2022/03/12 04:48:17;;;;;;;6.65;5.90;;;4.40;70.80;;;;;;4994026;28;20264;-63
2022/03/12 04:50:45;;;;;;;6.35;5.75;;;4.40;71.60;;;;;;4994645;28;20213;-62
2022/03/12 04:53:13;;;;;;;6.78;6.07;;;4.40;71.40;;;;;;4994142;28;20245;-62
2022/03/12 04:55:44;;;;;;;6.55;5.95;;;4.40;71.20;;;;;;4994808;28;20242;-62
2022/03/12 04:58:13;;;;;;;5.75;5.35;;;4.40;71.60;;;;;;4994412;28;20230;-61
2022/03/12 05:00:43;;;;;;;7.22;6.57;;;4.40;71.20;;;;;;4994097;28;20301;-61
2022/03/12 05:03:12;;;;;;;7.90;5.93;;;4.40;71.00;;;;;;4990218;28;20253;-62
2022/03/12 05:05:42;;;;;;;6.90;6.05;;;4.30;70.40;;;;;;4994084;28;20754;-62
2022/03/12 05:08:13;;;;;;;8.45;6.47;;;4.20;71.40;;;;;;4994226;28;20205;-62
2022/03/12 05:10:43;;;;;;;8.18;5.97;;;4.10;70.80;;;;;;4993476;28;20289;-62
2022/03/12 05:13:12;;;;;;;7.00;5.90;;;4.20;74.70;;;;;;4994080;28;20317;-61
2022/03/12 05:15:40;;;;;;;8.70;6.07;;;4.20;71.40;;;;;;4994068;28;20694;-61
2022/03/12 05:18:11;;;;;;;7.55;6.47;;;4.20;71.90;;;;;;4993481;28;20226;-61
2022/03/12 05:20:43;;;;;;;6.55;5.95;;;4.20;76.90;;;;;;4993847;28;20589;-62
2022/03/12 05:23:11;;;;;;;6.50;5.90;;;4.40;74.40;;;;;;4993645;28;20361;-62
2022/03/12 05:25:47;;;;;;;10.70;6.10;;;4.30;72.70;;;;;;4994363;28;20281;-61
2022/03/12 05:28:17;;;;;;;6.90;6.18;;;4.30;74.30;;;;;;4993931;28;20221;-61
2022/03/12 05:30:46;;;;;;;5.75;5.25;;;4.20;71.50;;;;;;4993940;28;20378;-61
2022/03/12 05:33:14;;;;;;;6.50;5.90;;;4.20;72.50;;;;;;4992751;28;20342;-61
2022/03/12 05:35:43;;;;;;;6.97;6.22;;;4.20;71.80;;;;;;4988299;28;20629;-61
2022/03/12 05:38:12;;;;;;;8.70;6.45;;;4.10;72.20;;;;;;4987360;28;20694;-62
2022/03/12 05:40:48;;;;;;;6.53;5.88;;;4.00;71.50;;;;;;4988195;28;20206;-61
2022/03/12 05:43:17;;;;;;;8.52;6.97;;;3.90;74.10;;;;;;4992906;28;20236;-61
2022/03/12 05:45:46;;;;;;;12.38;5.95;;;3.90;72.20;;;;;;4993728;28;20206;-61
2022/03/12 05:48:16;;;;;;;7.00;6.30;;;3.90;72.40;;;;;;4992906;28;20202;-62
2022/03/12 05:50:45;;;;;;;5.90;5.40;;;3.90;72.40;;;;;;4993526;28;20206;-62
2022/03/12 05:53:14;;;;;;;6.57;5.97;;;3.90;75.80;;;;;;4992676;28;20221;-62
2022/03/12 05:55:42;;;;;;;7.25;6.15;;;4.00;72.90;;;;;;4993756;28;20241;-61
2022/03/12 05:58:15;;;;;;;5.57;5.07;;;4.00;73.20;;;;;;4993301;28;20240;-61
2022/03/12 06:00:43;;;;;;;6.60;5.57;;;4.10;77.10;;;;;;4993592;28;20613;-61
2022/03/12 06:03:12;;;;;;;6.60;5.68;;;4.20;72.80;;;;;;4992542;28;20270;-62
2022/03/12 06:05:42;;;;;;;5.97;5.47;;;4.10;72.80;;;;;;4993092;28;20206;-62
2022/03/12 06:08:18;;;;;;;10.73;5.80;;;4.10;72.20;;;;;;4993164;28;20741;-63
2022/03/12 06:10:50;;;;;;;6.53;5.93;;;4.00;71.70;;;;;;4993339;28;20791;-62
2022/03/12 06:13:19;;;;;;;6.50;5.85;;;4.00;71.90;;;;;;4992662;28;20781;-62
2022/03/12 06:15:53;;;;;;;6.55;5.95;;;3.90;71.70;;;;;;4993313;28;20722;-62
2022/03/12 06:18:24;;;;;;;7.32;6.63;;;4.10;74.70;;;;;;4992757;28;20213;-61
2022/03/12 06:20:52;;;;;;;6.47;5.88;;;4.10;71.70;;;;;;4992433;28;20626;-62
2022/03/12 06:23:19;;;;;;;6.35;5.70;;;4.20;72.20;;;;;;4992474;28;20308;-62
2022/03/12 06:25:47;;;;;;;8.90;6.03;;;4.10;71.80;;;;;;4992882;28;20245;-61
2022/03/12 06:28:16;;;;;;;7.15;6.40;;;4.20;71.20;;;;;;4992502;28;20206;-62
2022/03/12 06:30:45;;;;;;;6.22;5.63;;;4.20;71.40;;;;;;4992692;28;20727;-61
2022/03/12 06:33:13;;;;;;;7.18;6.43;;;4.30;71.90;;;;;;4991677;28;20714;-62
2022/03/12 06:35:42;;;;;;;7.45;6.10;;;4.40;70.70;;;;;;4992979;28;20249;-62
2022/03/12 06:38:11;;;;;;;10.10;5.90;;;4.40;71.60;;;;;;4992333;28;20250;-62
2022/03/12 06:40:39;;;;;;;6.72;6.13;;;4.40;72.40;;;;;;4992306;28;20658;-62
2022/03/12 06:43:08;;;;;;;5.95;5.35;;;4.40;72.70;;;;;;4991814;28;20309;-62
2022/03/12 06:45:36;;;;;;;7.72;6.93;;;4.50;70.90;;;;;;4989316;28;20289;-61
2022/03/12 06:48:06;;;;;;;7.65;5.68;;;4.60;71.70;;;;;;4991714;28;20202;-61
2022/03/12 06:50:34;;;;;;;7.60;6.30;;;4.70;74.70;;;;;;4996683;28;20202;-61
2022/03/12 06:53:02;;;;;;;6.65;6.05;;;4.80;70.20;;;;;;4997248;28;20253;-63
2022/03/12 06:55:31;;;;;;;8.32;5.78;;;4.80;70.70;;;;;;4992473;28;20205;-62
2022/03/12 06:57:58;;;;;;;5.55;5.10;;;4.80;71.00;;;;;;4992406;28;20781;-62
2022/03/12 07:00:29;;;;;;;6.82;6.22;;;4.90;69.80;;;;;;4992330;28;20209;-63
2022/03/12 07:02:57;;;;;;;6.18;5.57;;;4.80;69.50;;;;;;4992106;28;20214;-61
2022/03/12 07:05:27;;;;;;;7.25;6.55;;;5.00;70.40;;;;;;4992467;28;20212;-61
2022/03/12 07:07:56;;;;;;;6.00;5.40;;;5.10;71.00;;;;;;4992198;28;20600;-62
2022/03/12 07:10:24;;;;;;;6.20;5.60;;;5.20;69.80;;;;;;4992219;28;20929;-61
2022/03/12 07:12:52;;;;;;;6.15;5.55;;;5.20;70.60;;;;;;4990503;28;20249;-61
2022/03/12 07:15:22;;;;;;;6.82;6.22;;;5.30;69.40;;;;;;4991986;28;20256;-61
2022/03/12 07:17:50;;;;;;;6.55;5.43;;;5.40;69.40;;;;;;4984115;28;20622;-62
2022/03/12 07:20:19;;;;;;;7.18;5.68;;;5.40;69.50;;;;;;4982759;28;20253;-61
2022/03/12 07:22:48;;;;;;;7.00;5.30;;;5.50;68.90;;;;;;4978230;28;20710;-62
2022/03/12 07:25:17;;;;;;;6.32;5.72;;;5.60;68.90;;;;;;4980889;28;20249;-62
2022/03/12 07:27:46;;;;;;;7.80;6.70;;;5.70;69.00;;;;;;4980064;28;20302;-61
2022/03/12 07:30:16;;;;;;;6.15;5.65;;;5.80;68.90;;;;;;4991816;28;20822;-61
2022/03/12 07:32:45;;;;;;;6.50;5.88;;;5.90;68.70;;;;;;4991098;28;20249;-62
2022/03/12 07:35:15;;;;;;;7.22;6.45;;;6.00;67.70;;;;;;4992019;28;20241;-61
2022/03/12 07:37:44;;;;;;;6.70;6.03;;;6.10;68.80;;;;;;4991939;28;20242;-62
2022/03/12 07:40:15;;;;;;;6.68;5.07;;;6.10;68.10;;;;;;4991837;28;20221;-61
2022/03/12 07:42:44;;;;;;;6.07;5.50;;;6.30;68.10;;;;;;4990813;28;20707;-62
2022/03/12 07:45:12;;;;;;;7.25;5.72;;;6.30;67.10;;;;;;4991788;28;20649;-62
2022/03/12 07:47:40;;;;;;;5.95;5.35;;;6.40;68.10;;;;;;4991932;28;20226;-62
2022/03/12 07:50:09;;;;;;;6.25;5.65;;;6.40;67.00;;;;;;4991391;28;20636;-61
2022/03/12 07:52:37;;;;;;;5.68;5.18;;;6.60;67.80;;;;;;4991225;28;20226;-61
2022/03/12 07:55:08;;;;;;;6.93;5.80;;;6.60;67.00;;;;;;4992076;28;20245;-62
2022/03/12 07:57:38;;;;;;;6.40;5.80;;;6.60;67.40;;;;;;4996204;28;20245;-62
2022/03/12 08:00:09;;;;;;;6.88;5.97;;;6.80;66.80;;;;;;4995163;28;20233;-63
2022/03/12 08:02:38;;;;;;;6.60;6.00;;;6.90;66.70;;;;;;4970253;28;20349;-64
2022/03/12 08:05:06;;;;;;;6.60;6.00;;;7.10;68.80;;;;;;4989423;28;20663;-62
2022/03/12 08:07:34;;;;;;;5.75;5.10;;;7.40;66.40;;;;;;4990117;28;20221;-62
2022/03/12 08:10:02;;;;;;;6.85;6.15;;;7.40;65.60;;;;;;4988944;28;20301;-62
2022/03/12 08:12:35;;;;;;;9.25;6.40;;;7.70;65.70;;;;;;4989561;28;20237;-62
2022/03/12 08:15:07;;;;;;;7.35;6.18;;;7.70;65.30;;;;;;4989192;28;20209;-62
2022/03/12 08:17:35;;;;;;;7.47;5.70;;;7.80;65.20;;;;;;4987473;28;20258;-62
2022/03/12 08:20:05;;;;;;;7.97;5.97;;;8.10;66.10;;;;;;4990300;28;20640;-62
2022/03/12 08:22:32;;;;;;;6.40;5.57;;;8.20;65.20;;;;;;4989550;28;20254;-63
2022/03/12 08:25:00;;;;;;;6.07;5.50;;;8.40;65.10;;;;;;4989842;28;20297;-63
2022/03/12 08:27:28;;;;;;;9.00;6.18;;;8.20;63.70;;;;;;4971741;28;20272;-62
2022/03/12 08:29:56;;;;;;;7.63;5.68;;;8.30;65.30;;;;;;4989660;28;20301;-62
2022/03/12 08:32:25;;;;;;;6.90;5.55;;;8.30;65.00;;;;;;4987769;28;20954;-62
2022/03/12 08:34:57;;;;;;;7.40;6.35;;;8.20;64.20;;;;;;4989122;28;20233;-63
2022/03/12 08:37:26;;;;;;;9.82;6.18;;;8.30;64.30;;;;;;4986560;28;20284;-62
2022/03/12 08:39:53;;;;;;;8.10;5.53;;;8.30;64.00;;;;;;4989790;28;20557;-62
2022/03/12 08:42:24;;;;;;;9.35;6.85;;;8.50;64.80;;;;;;4988531;28;20324;-62
2022/03/12 08:44:52;;;;;;;12.35;6.35;;;8.60;63.70;;;;;;4989111;28;20210;-62
2022/03/12 08:47:19;;;;;;;6.85;6.10;;;8.90;64.50;;;;;;4987488;28;20198;-63
2022/03/12 08:49:49;;;;;;;5.95;5.35;;;9.20;65.10;;;;;;4989180;28;20664;-63
2022/03/12 08:52:17;;;;;;;6.07;5.47;;;9.50;63.60;;;;;;4989128;28;20697;-62
2022/03/12 08:54:44;;;;;;;7.47;5.57;;;9.70;63.70;;;;;;4986359;28;20289;-63
2022/03/12 08:57:12;;;;;;;6.70;5.47;;;9.70;62.70;;;;;;4988969;28;20221;-62
2022/03/12 08:59:40;;;;;;;6.20;5.70;;;9.70;62.70;;;;;;4987047;28;20226;-62
2022/03/12 09:02:09;;;;;;;8.40;6.82;;;9.70;62.40;;;;;;4988054;28;21011;-63
2022/03/12 09:04:37;;;;;;;6.70;6.10;;;9.60;61.90;;;;;;4988042;28;20198;-62
2022/03/12 09:07:07;;;;;;;6.72;5.82;;;9.60;62.00;;;;;;4971201;28;20297;-63
2022/03/12 09:09:34;;;;;;;7.90;5.82;;;9.60;62.90;;;;;;4988897;28;20300;-63
2022/03/12 09:12:03;;;;;;;7.38;5.78;;;9.80;64.20;;;;;;4986825;28;20329;-63
2022/03/12 09:14:34;;;;;;;6.20;5.60;;;9.80;62.40;;;;;;4988729;28;20244;-61
2022/03/12 09:17:03;;;;;;;10.57;6.57;;;9.80;62.70;;;;;;4988577;28;20665;-62
2022/03/12 09:19:32;;;;;;;6.65;5.95;;;9.90;63.30;;;;;;4988785;28;20663;-62
2022/03/12 09:22:02;;;;;;;7.47;6.00;;;10.30;65.90;;;;;;4988777;28;20234;-62
2022/03/12 09:24:32;;;;;;;8.15;6.30;;;10.60;61.90;;;;;;4988732;28;20290;-63
2022/03/12 09:27:00;;;;;;;8.70;6.15;;;10.70;62.60;;;;;;4986378;28;20297;-63
2022/03/12 09:29:28;;;;;;;6.25;5.65;;;10.70;62.10;;;;;;4988232;28;20245;-63
2022/03/12 09:31:55;;;;;;;8.00;5.93;;;10.60;62.60;;;;;;4987531;28;20233;-63
2022/03/12 09:34:23;;;;;;;7.68;6.88;;;10.80;61.80;;;;;;4988397;28;20638;-64
2022/03/12 09:36:52;;;;;;;5.97;5.47;;;10.90;61.30;;;;;;4987994;28;20680;-63
2022/03/12 09:39:19;;;;;;;6.82;6.22;;;11.00;62.20;;;;;;4988452;28;20673;-63
2022/03/12 09:41:49;;;;;;;7.03;6.30;;;11.10;61.90;;;;;;4987682;28;20337;-63
2022/03/12 09:44:17;;;;;;;7.80;5.95;;;11.00;61.90;;;;;;4988166;28;20249;-62
2022/03/12 09:46:45;;;;;;;6.93;6.22;;;11.10;61.90;;;;;;4987932;28;20233;-62
2022/03/12 09:49:14;;;;;;;6.78;6.20;;;11.20;62.40;;;;;;4985902;28;20209;-62
2022/03/12 09:51:43;;;;;;;8.25;6.30;;;11.30;62.40;;;;;;4987198;28;20780;-62
2022/03/12 09:54:11;;;;;;;6.75;6.13;;;11.50;62.30;;;;;;4985634;28;20971;-62
2022/03/12 09:56:39;;;;;;;7.22;6.55;;;11.70;61.50;;;;;;4987594;28;20206;-62
2022/03/12 09:59:08;;;;;;;8.25;6.45;;;11.90;61.70;;;;;;4986788;28;20305;-63
2022/03/12 10:01:37;;;;;;;7.95;6.97;;;12.00;61.40;;;;;;4987754;28;20234;-62
2022/03/12 10:04:05;;;;;;;8.80;6.15;;;12.20;61.80;;;;;;4987739;28;20206;-62
2022/03/12 10:06:33;;;;;;;7.70;6.18;;;12.40;61.80;;;;;;4986029;28;20230;-62
2022/03/12 10:09:03;;;;;;;6.57;5.97;;;12.40;62.30;;;;;;4988256;28;20225;-62
2022/03/12 10:11:31;;;;;;;6.28;5.65;;;12.50;62.30;;;;;;4987713;28;20364;-62
2022/03/12 10:13:58;;;;;;;8.00;6.47;;;12.40;62.80;;;;;;4987405;28;20202;-62
2022/03/12 10:16:29;;;;;;;10.20;7.10;;;12.70;61.60;;;;;;4982636;28;20210;-62
2022/03/12 10:18:57;;;;;;;6.85;6.10;;;12.70;61.90;;;;;;4986648;28;20218;-62
2022/03/12 10:21:25;;;;;;;7.45;6.65;;;12.70;61.80;;;;;;4987773;28;21074;-62
2022/03/12 10:23:54;;;;;;;7.22;6.57;;;12.80;62.20;;;;;;4985756;28;20236;-62
2022/03/12 10:26:22;;;;;;;8.95;7.00;;;12.70;61.70;;;;;;4987241;28;20210;-63
2022/03/12 10:28:50;;;;;;;10.80;6.85;;;12.80;61.50;;;;;;4986670;28;20277;-62
2022/03/12 10:31:19;;;;;;;6.90;6.07;;;13.10;62.10;;;;;;4986187;28;20202;-62
2022/03/12 10:33:49;;;;;;;7.05;6.35;;;13.10;62.50;;;;;;4980348;28;20215;-61
2022/03/12 10:36:18;;;;;;;7.88;6.95;;;13.30;62.10;;;;;;4972039;28;20731;-61
2022/03/12 10:38:48;;;;;;;7.13;6.35;;;13.50;61.40;;;;;;4976731;28;20246;-62
2022/03/12 10:41:17;;;;;;;8.32;7.10;;;13.80;62.60;;;;;;4983317;28;20208;-62
2022/03/12 10:43:46;;;;;;;10.65;7.55;;;14.00;62.60;;;;;;4980771;28;20721;-62
2022/03/12 10:46:20;;;;;;;6.85;6.05;;;14.20;61.70;;;;;;4972627;28;20887;-63
2022/03/12 10:48:55;;;;;;;8.20;7.40;;;14.20;60.90;;;;;;4976598;28;20725;-63
2022/03/12 10:51:31;;;;;;;7.95;7.15;;;14.40;60.90;;;;;;4977994;28;20205;-62
2022/03/12 10:54:07;;;;;;;8.18;7.10;;;14.50;61.40;;;;;;4973117;28;20744;-63
2022/03/12 10:56:43;;;;;;;7.93;6.35;;;14.60;60.80;;;;;;4980486;28;20212;-62
2022/03/12 10:59:13;;;;;;;7.90;7.10;;;14.70;61.00;;;;;;4974605;28;20222;-62
2022/03/12 11:01:47;;;;;;;8.45;7.50;;;14.70;61.20;;;;;;4973780;28;20226;-62
2022/03/12 11:04:22;;;;;;;7.20;6.57;;;14.80;61.40;;;;;;4976749;28;20199;-62
2022/03/12 11:06:52;;;;;;;6.72;6.13;;;15.00;61.20;;;;;;4978501;28;20296;-62
2022/03/12 11:09:34;;;;;;;8.57;7.78;;;15.00;61.40;;;;;;4975140;28;20284;-61
2022/03/12 11:12:07;;;;;;;11.20;7.40;;;15.40;60.70;;;;;;4976421;28;20260;-63
2022/03/12 11:14:35;;;;;;;8.38;7.13;;;15.60;61.70;;;;;;4978249;28;20923;-61
2022/03/12 11:17:03;;;;;;;7.55;6.90;;;15.40;60.40;;;;;;4973560;28;20289;-62
2022/03/12 11:19:39;;;;;;;8.48;7.45;;;15.20;61.40;;;;;;4973918;28;21003;-62
2022/03/12 11:22:11;;;;;;;9.10;8.18;;;15.10;61.00;;;;;;4970484;28;20321;-62
2022/03/12 11:24:46;;;;;;;7.70;7.00;;;15.20;60.70;;;;;;4972009;28;20206;-62
2022/03/12 11:27:18;;;;;;;9.40;7.75;;;15.50;62.40;;;;;;4974556;28;20309;-62
2022/03/12 11:29:57;;;;;;;9.50;8.50;;;15.80;60.60;;;;;;4973460;28;20226;-62
2022/03/12 11:32:26;;;;;;;7.70;6.90;;;16.20;60.40;;;;;;4979875;28;20337;-62
2022/03/12 11:35:06;;;;;;;8.25;6.72;;;16.50;60.90;;;;;;4976366;28;20201;-62
2022/03/12 11:37:36;;;;;;;10.60;7.20;;;17.00;60.30;;;;;;4980531;28;20285;-64
2022/03/12 11:40:11;;;;;;;13.18;8.35;;;17.20;59.80;;;;;;4985813;28;20306;-64
2022/03/12 11:42:41;;;;;;;8.55;7.57;;;17.40;59.10;;;;;;4982750;28;20229;-62
2022/03/12 11:45:12;;;;;;;7.47;6.78;;;17.60;59.40;;;;;;4979768;28;20202;-63
2022/03/12 11:47:41;;;;;;;7.25;6.57;;;17.80;58.80;;;;;;4984677;28;20273;-61
2022/03/12 11:50:15;;;;;;;7.13;6.53;;;17.90;58.70;;;;;;4979217;28;20282;-61
2022/03/12 11:52:44;;;;;;;7.82;7.03;;;17.60;58.10;;;;;;4978258;28;20250;-62
2022/03/12 11:55:18;;;;;;;8.93;7.50;;;17.50;58.40;;;;;;4985432;28;20233;-63
2022/03/12 11:57:48;;;;;;;7.72;6.93;;;17.80;58.30;;;;;;4986302;28;20297;-63
2022/03/12 12:00:22;;;;;;;7.75;7.05;;;17.80;58.60;;;;;;4986323;28;20272;-63
2022/03/12 12:02:52;;;;;;;8.70;7.80;;;18.10;58.50;;;;;;4986253;28;20252;-64
2022/03/12 12:05:23;;;;;;;7.93;7.15;;;18.20;57.60;;;;;;4986169;28;20206;-63
2022/03/12 12:07:52;;;;;;;8.32;7.50;;;18.30;57.90;;;;;;4985869;28;20209;-62
2022/03/12 12:10:21;;;;;;;7.00;6.40;;;18.20;57.20;;;;;;4986197;28;20210;-64
2022/03/12 12:12:51;;;;;;;8.30;7.47;;;18.40;57.20;;;;;;4984287;28;20788;-64
2022/03/12 12:15:25;;;;;;;7.93;7.20;;;18.60;56.70;;;;;;4985931;28;20682;-63
2022/03/12 12:17:54;;;;;;;7.32;6.72;;;19.00;56.70;;;;;;4979659;28;20293;-64
2022/03/12 12:20:24;;;;;;;9.20;7.53;;;19.20;56.80;;;;;;4980228;28;20333;-63
2022/03/12 12:22:56;;;;;;;8.75;7.85;;;19.40;56.50;;;;;;4985827;28;20303;-62
2022/03/12 12:25:25;;;;;;;8.80;7.93;;;19.30;57.00;;;;;;4985918;28;20226;-63
2022/03/12 12:27:55;;;;;;;10.40;8.30;;;19.40;57.20;;;;;;4985792;28;20292;-63
2022/03/12 12:30:37;;;;;;;8.63;7.03;;;19.20;57.00;;;;;;4985885;28;20758;-64
2022/03/12 12:33:32;;;;;;;10.23;8.10;;;19.60;57.50;;;;;;4985531;28;20288;-63
2022/03/12 12:36:14;;;;;;;8.25;7.55;;;19.60;56.80;;;;;;4962352;28;20733;-63
2022/03/12 12:39:03;;;;;;;9.02;7.47;;;19.50;57.60;;;;;;4985194;28;20220;-64
2022/03/12 12:41:52;;;;;;;8.13;7.20;;;19.20;58.30;;;;;;4985483;28;20308;-63
2022/03/12 12:44:41;;;;;;;9.10;8.20;;;18.80;58.70;;;;;;4981096;28;20295;-63
2022/03/12 12:47:18;;;;;;;9.80;8.10;;;19.10;58.60;;;;;;4988259;28;20597;-62
2022/03/12 12:49:52;;;;;;;9.35;8.27;;;19.40;59.70;;;;;;4989406;28;20190;-63
2022/03/12 12:52:23;;;;;;;8.02;7.00;;;19.60;58.50;;;;;;4983361;28;20253;-64
2022/03/12 12:54:58;;;;;;;9.55;8.43;;;20.20;59.40;;;;;;4987398;28;20205;-63
2022/03/12 12:57:40;;;;;;;7.90;6.95;;;20.10;57.20;;;;;;4989177;28;20523;-64
2022/03/12 13:00:32;;;;;;;9.77;7.72;;;19.20;59.40;;;;;;4989476;28;20332;-63
2022/03/12 13:03:04;;;;;;;14.95;8.02;;;19.20;58.80;;;;;;4988345;28;20236;-63
2022/03/12 13:05:43;;;;;;;8.45;7.65;;;18.90;59.80;;;;;;4977568;28;20812;-63
2022/03/12 13:08:13;;;;;;;12.35;8.23;;;18.60;60.70;;;;;;4984302;28;20677;-63